Time;durP1;ratioP1;P1;durP2;ratioP2;P2;SDS_P1;SDS_P2;PMS_P1;PMS_P2;Temp;Humidity;BMP_temperature;BMP_pressure;BME280_temperature;BME280_humidity;BME280_pressure;Samples;Min_cycle;Max_cycle;Signal;HPM_P1;HPM_P2
2023/11/01 00:00:22;;;;;;;11.20;3.65;;;;;;;;;;5074135;28;20043;-74
2023/11/01 00:02:49;;;;;;;13.82;4.18;;;;;;;;;;5103322;28;20050;-74
2023/11/01 00:05:15;;;;;;;12.88;3.83;;;;;;;;;;5067292;28;20140;-73
2023/11/01 00:07:41;;;;;;;9.38;3.40;;;;;;;;;;5095919;28;20486;-74
2023/11/01 00:10:08;;;;;;;10.18;3.85;;;;;;;;;;5098270;28;20102;-74
2023/11/01 00:12:35;;;;;;;10.18;3.53;;;;;;;;;;5080647;28;20051;-74
2023/11/01 00:15:01;;;;;;;9.85;3.25;;;;;;;;;;5083749;28;20055;-74
2023/11/01 00:17:28;;;;;;;11.52;3.67;;;;;;;;;;5084491;28;20182;-74
2023/11/01 00:19:54;;;;;;;7.88;3.60;;;;;;;;;;5103439;28;20070;-74
2023/11/01 00:22:21;;;;;;;11.75;3.63;;;;;;;;;;5083961;28;20059;-74
2023/11/01 00:24:48;;;;;;;13.30;3.47;;;;;;;;;;5102936;28;20132;-74
2023/11/01 00:27:14;;;;;;;12.25;4.03;;;;;;;;;;5098221;28;20124;-74
2023/11/01 00:29:40;;;;;;;9.98;3.55;;;;;;;;;;5095581;28;20087;-74
2023/11/01 00:32:07;;;;;;;12.38;3.58;;;;;;;;;;5077169;28;20043;-74
2023/11/01 00:34:33;;;;;;;14.73;4.03;;;;;;;;;;5071513;28;20647;-74
2023/11/01 00:37:00;;;;;;;7.57;3.50;;;;;;;;;;5100550;28;20067;-74
2023/11/01 00:39:26;;;;;;;10.88;4.10;;;;;;;;;;5070662;28;20047;-74
2023/11/01 00:41:52;;;;;;;10.43;4.07;;;;;;;;;;5080188;28;20075;-74
2023/11/01 00:44:19;;;;;;;7.32;3.85;;;;;;;;;;5089214;28;20600;-74
2023/11/01 00:46:45;;;;;;;10.40;4.28;;;;;;;;;;5097484;28;20381;-74
2023/11/01 00:49:12;;;;;;;9.07;4.18;;;;;;;;;;5096697;28;20473;-74
2023/11/01 00:51:38;;;;;;;13.10;4.75;;;;;;;;;;5094332;28;20079;-74
2023/11/01 00:54:05;;;;;;;12.48;4.45;;;;;;;;;;5082849;28;20808;-74
2023/11/01 00:56:31;;;;;;;9.00;3.85;;;;;;;;;;5083733;28;20131;-74
2023/11/01 00:58:58;;;;;;;8.52;3.42;;;;;;;;;;5082165;28;20044;-74
2023/11/01 01:01:24;;;;;;;13.48;3.97;;;;;;;;;;5085130;28;20039;-74
2023/11/01 01:03:51;;;;;;;11.30;3.78;;;;;;;;;;5082446;28;20048;-74
2023/11/01 01:06:17;;;;;;;8.98;4.38;;;;;;;;;;5088881;28;20105;-74
2023/11/01 01:08:43;;;;;;;12.32;4.00;;;;;;;;;;5084453;28;20103;-74
2023/11/01 01:11:10;;;;;;;11.27;4.20;;;;;;;;;;5103739;28;20143;-74
2023/11/01 01:13:36;;;;;;;12.93;4.97;;;;;;;;;;5104461;28;20051;-75
2023/11/01 01:16:04;;;;;;;9.90;3.78;;;;;;;;;;5092572;28;20056;-74
2023/11/01 01:18:30;;;;;;;10.68;4.53;;;;;;;;;;5074595;28;20393;-74
2023/11/01 01:20:58;;;;;;;9.15;4.10;;;;;;;;;;5077020;28;20449;-74
2023/11/01 01:23:24;;;;;;;9.57;3.83;;;;;;;;;;5101937;28;20050;-74
2023/11/01 01:25:50;;;;;;;10.23;4.35;;;;;;;;;;5081168;28;20094;-74
2023/11/01 01:28:17;;;;;;;11.98;4.00;;;;;;;;;;5077235;28;20633;-74
2023/11/01 01:30:43;;;;;;;11.20;3.80;;;;;;;;;;5087367;28;20121;-74
2023/11/01 01:33:09;;;;;;;10.05;4.15;;;;;;;;;;5075395;28;20048;-74
2023/11/01 01:35:36;;;;;;;11.57;3.65;;;;;;;;;;5091451;28;20051;-74
2023/11/01 01:38:03;;;;;;;6.70;3.80;;;;;;;;;;5082123;28;20140;-74
2023/11/01 01:40:34;;;;;;;15.27;3.72;;;;;;;;;;5096135;28;20053;-74
2023/11/01 01:43:16;;;;;;;10.38;3.33;;;;;;;;;;5098555;28;20055;-74
2023/11/01 01:45:43;;;;;;;11.82;4.53;;;;;;;;;;5090919;28;20540;-74
2023/11/01 01:48:10;;;;;;;11.07;4.00;;;;;;;;;;5086874;28;20075;-74
2023/11/01 01:50:36;;;;;;;10.20;3.72;;;;;;;;;;5065628;28;20070;-74
2023/11/01 01:53:03;;;;;;;9.57;3.50;;;;;;;;;;5099640;28;20510;-74
2023/11/01 01:55:30;;;;;;;12.00;3.50;;;;;;;;;;5065077;28;20542;-73
2023/11/01 01:57:57;;;;;;;12.45;3.40;;;;;;;;;;5075328;28;20079;-73
2023/11/01 02:00:24;;;;;;;9.93;3.78;;;;;;;;;;5088094;28;20056;-74
2023/11/01 02:02:52;;;;;;;10.52;3.60;;;;;;;;;;5094539;28;20506;-74
2023/11/01 02:05:20;;;;;;;11.48;3.13;;;;;;;;;;5092284;28;20047;-74
2023/11/01 02:07:47;;;;;;;10.15;3.33;;;;;;;;;;5074898;28;20052;-73
2023/11/01 02:10:14;;;;;;;8.60;3.30;;;;;;;;;;5101045;28;20407;-74
2023/11/01 02:12:41;;;;;;;11.43;3.30;;;;;;;;;;5095589;28;20652;-74
2023/11/01 02:15:07;;;;;;;9.02;3.70;;;;;;;;;;5099493;28;20052;-74
2023/11/01 02:17:34;;;;;;;12.05;2.90;;;;;;;;;;5095397;28;20051;-74
2023/11/01 02:20:01;;;;;;;9.05;2.83;;;;;;;;;;5083765;28;20668;-74
2023/11/01 02:22:27;;;;;;;10.48;2.70;;;;;;;;;;5088544;28;20067;-74
2023/11/01 02:24:53;;;;;;;9.75;2.75;;;;;;;;;;5084813;28;20050;-74
2023/11/01 02:27:20;;;;;;;11.38;2.78;;;;;;;;;;5098198;28;20040;-74
2023/11/01 02:29:47;;;;;;;7.43;2.70;;;;;;;;;;5101447;28;20411;-74
2023/11/01 02:32:14;;;;;;;7.35;2.90;;;;;;;;;;5101678;28;20040;-74
2023/11/01 02:34:40;;;;;;;10.20;2.80;;;;;;;;;;5093962;28;20043;-74
2023/11/01 02:37:06;;;;;;;10.85;2.92;;;;;;;;;;5100349;28;20530;-74
2023/11/01 02:39:33;;;;;;;7.47;2.58;;;;;;;;;;5076923;28;20051;-74
2023/11/01 02:41:59;;;;;;;10.70;2.72;;;;;;;;;;5087691;28;21373;-74
2023/11/01 02:44:26;;;;;;;8.43;2.78;;;;;;;;;;5098401;28;20103;-74
2023/11/01 02:46:52;;;;;;;11.63;2.85;;;;;;;;;;5075234;28;20193;-75
2023/11/01 02:49:19;;;;;;;9.25;2.75;;;;;;;;;;5097160;28;20040;-74
2023/11/01 02:51:46;;;;;;;7.15;2.17;;;;;;;;;;5101404;28;20059;-74
2023/11/01 02:54:12;;;;;;;10.68;2.40;;;;;;;;;;5097326;28;20503;-74
2023/11/01 02:56:39;;;;;;;8.25;2.80;;;;;;;;;;5101928;27;20048;-74
2023/11/01 02:59:05;;;;;;;8.82;2.78;;;;;;;;;;5086589;28;20052;-74
2023/11/01 03:01:31;;;;;;;6.93;2.33;;;;;;;;;;5104526;28;20052;-74
2023/11/01 03:03:58;;;;;;;7.47;2.45;;;;;;;;;;5097836;28;20757;-74
2023/11/01 03:06:24;;;;;;;5.80;2.40;;;;;;;;;;5101159;28;20060;-74
2023/11/01 03:08:51;;;;;;;5.07;2.03;;;;;;;;;;5087162;28;20058;-74
2023/11/01 03:11:17;;;;;;;11.45;2.45;;;;;;;;;;5085207;28;20223;-74
2023/11/01 03:13:44;;;;;;;4.63;2.22;;;;;;;;;;5096369;28;20537;-74
2023/11/01 03:16:10;;;;;;;6.03;2.25;;;;;;;;;;5100597;28;20151;-74
2023/11/01 03:18:37;;;;;;;7.80;2.38;;;;;;;;;;5105335;28;20067;-74
2023/11/01 03:21:04;;;;;;;7.22;2.45;;;;;;;;;;5102334;28;20078;-74
2023/11/01 03:23:30;;;;;;;7.80;2.40;;;;;;;;;;5068997;28;20043;-74
2023/11/01 03:25:57;;;;;;;5.85;2.10;;;;;;;;;;5102381;28;20432;-74
2023/11/01 03:28:23;;;;;;;4.45;2.00;;;;;;;;;;5077417;28;20060;-74
2023/11/01 03:30:50;;;;;;;6.88;2.30;;;;;;;;;;5068023;28;20825;-75
2023/11/01 03:33:16;;;;;;;6.38;2.80;;;;;;;;;;5096782;28;20642;-74
2023/11/01 03:35:43;;;;;;;10.07;2.70;;;;;;;;;;5102069;28;20051;-74
2023/11/01 03:38:09;;;;;;;6.13;2.60;;;;;;;;;;5087861;28;20433;-74
2023/11/01 03:40:36;;;;;;;7.18;2.65;;;;;;;;;;5104559;28;20577;-74
2023/11/01 03:43:04;;;;;;;8.52;2.40;;;;;;;;;;5100321;28;20051;-74
2023/11/01 03:45:30;;;;;;;9.20;3.25;;;;;;;;;;5086693;28;20075;-74
2023/11/01 03:47:57;;;;;;;13.32;3.25;;;;;;;;;;5103268;28;20105;-74
2023/11/01 03:50:23;;;;;;;5.18;2.25;;;;;;;;;;5088598;28;20081;-74
2023/11/01 03:52:50;;;;;;;8.25;2.70;;;;;;;;;;5089026;28;20059;-75
2023/11/01 03:55:16;;;;;;;5.10;2.03;;;;;;;;;;5088929;28;20127;-74
2023/11/01 03:57:43;;;;;;;5.82;2.35;;;;;;;;;;5105062;28;20108;-74
2023/11/01 04:00:10;;;;;;;11.00;2.40;;;;;;;;;;5104589;28;20051;-74
2023/11/01 04:02:37;;;;;;;8.43;2.70;;;;;;;;;;5089529;28;20102;-74
2023/11/01 04:05:04;;;;;;;5.75;2.38;;;;;;;;;;5086213;28;20056;-74
2023/11/01 04:07:30;;;;;;;8.32;2.47;;;;;;;;;;5083468;28;20685;-75
2023/11/01 04:09:57;;;;;;;7.88;2.50;;;;;;;;;;5104102;27;20042;-74
2023/11/01 04:12:23;;;;;;;6.78;2.50;;;;;;;;;;5109921;28;20028;-75
2023/11/01 04:14:49;;;;;;;4.40;2.40;;;;;;;;;;5098045;28;20118;-75
2023/11/01 04:17:16;;;;;;;7.28;2.38;;;;;;;;;;5102530;28;20107;-74
2023/11/01 04:19:42;;;;;;;5.97;2.42;;;;;;;;;;5107985;28;20055;-74
2023/11/01 04:22:09;;;;;;;7.78;2.47;;;;;;;;;;5090164;28;20047;-73
2023/11/01 04:24:35;;;;;;;7.30;2.30;;;;;;;;;;5082212;28;20145;-74
2023/11/01 04:27:02;;;;;;;6.30;2.45;;;;;;;;;;5069210;28;20082;-74
2023/11/01 04:29:29;;;;;;;3.95;2.20;;;;;;;;;;5086346;28;20040;-74
2023/11/01 04:31:55;;;;;;;4.28;2.60;;;;;;;;;;5105146;28;20043;-74
2023/11/01 04:34:22;;;;;;;4.10;2.30;;;;;;;;;;5087135;28;20121;-74
2023/11/01 04:36:48;;;;;;;3.08;2.10;;;;;;;;;;5105491;28;20135;-74
2023/11/01 04:39:14;;;;;;;5.75;2.05;;;;;;;;;;5106048;27;20509;-74
2023/11/01 04:41:41;;;;;;;2.90;1.83;;;;;;;;;;5111675;27;20082;-74
2023/11/01 04:44:08;;;;;;;3.45;1.80;;;;;;;;;;5080397;28;20124;-74
2023/11/01 04:46:35;;;;;;;2.45;1.52;;;;;;;;;;5074395;28;20063;-74
2023/11/01 04:49:02;;;;;;;5.55;1.80;;;;;;;;;;5092071;28;20180;-74
2023/11/01 04:51:28;;;;;;;2.28;1.58;;;;;;;;;;5068037;28;20059;-74
2023/11/01 04:53:55;;;;;;;2.42;1.45;;;;;;;;;;5096027;28;20048;-74
2023/11/01 04:56:21;;;;;;;2.45;1.67;;;;;;;;;;5092283;28;20056;-74
2023/11/01 04:58:47;;;;;;;2.70;1.80;;;;;;;;;;5108117;27;20052;-74
2023/11/01 05:01:14;;;;;;;2.85;1.63;;;;;;;;;;5084736;28;20574;-74
2023/11/01 05:03:40;;;;;;;4.93;2.00;;;;;;;;;;5093224;28;20472;-74
2023/11/01 05:06:07;;;;;;;4.30;1.67;;;;;;;;;;5081306;28;20051;-73
2023/11/01 05:08:36;;;;;;;1.70;1.60;;;;;;;;;;5084459;28;20074;-74
2023/11/01 05:11:03;;;;;;;5.93;1.98;;;;;;;;;;5098207;28;20507;-74
2023/11/01 05:13:31;;;;;;;3.75;1.90;;;;;;;;;;5073546;28;20282;-74
2023/11/01 05:15:57;;;;;;;2.78;2.13;;;;;;;;;;5086702;28;20088;-74
2023/11/01 05:18:24;;;;;;;3.80;2.55;;;;;;;;;;5101492;28;20047;-74
2023/11/01 05:20:51;;;;;;;5.53;2.13;;;;;;;;;;5095030;28;20043;-74
2023/11/01 05:23:18;;;;;;;3.30;2.28;;;;;;;;;;5080384;28;20047;-74
2023/11/01 05:25:45;;;;;;;5.57;2.50;;;;;;;;;;5091382;28;20052;-74
2023/11/01 05:28:11;;;;;;;4.90;2.45;;;;;;;;;;5099477;28;20530;-74
2023/11/01 05:30:38;;;;;;;5.38;3.13;;;;;;;;;;5085296;28;20059;-75
2023/11/01 05:33:04;;;;;;;5.70;2.85;;;;;;;;;;5095602;28;20783;-74
2023/11/01 05:35:36;;;;;;;6.45;2.90;;;;;;;;;;5102387;28;20117;-74
2023/11/01 05:38:03;;;;;;;4.72;2.72;;;;;;;;;;5095394;28;20055;-74
2023/11/01 05:40:30;;;;;;;5.72;3.10;;;;;;;;;;5086743;28;20093;-74
2023/11/01 05:42:57;;;;;;;5.43;3.42;;;;;;;;;;5085970;28;20495;-75
2023/11/01 05:45:23;;;;;;;8.38;3.47;;;;;;;;;;5097016;28;20538;-74
2023/11/01 05:47:49;;;;;;;7.65;3.40;;;;;;;;;;5085595;28;20044;-74
2023/11/01 05:50:19;;;;;;;5.70;2.78;;;;;;;;;;5082517;28;20102;-74
2023/11/01 05:52:46;;;;;;;8.77;3.13;;;;;;;;;;5086212;28;20075;-74
2023/11/01 05:55:12;;;;;;;6.07;3.13;;;;;;;;;;5082857;28;20093;-75
2023/11/01 05:57:51;;;;;;;7.57;3.72;;;;;;;;;;5075862;28;20512;-74
2023/11/01 06:00:18;;;;;;;5.32;3.05;;;;;;;;;;5084039;28;20047;-74
2023/11/01 06:02:45;;;;;;;7.00;3.08;;;;;;;;;;5103677;28;20360;-74
2023/11/01 06:05:11;;;;;;;8.07;3.00;;;;;;;;;;5085677;28;20047;-75
2023/11/01 06:07:38;;;;;;;7.72;3.53;;;;;;;;;;5085504;28;20134;-75
2023/11/01 06:10:04;;;;;;;7.25;2.95;;;;;;;;;;5084461;28;20144;-75
2023/11/01 06:12:31;;;;;;;10.10;3.33;;;;;;;;;;5103171;28;20063;-74
2023/11/01 06:14:57;;;;;;;10.07;3.20;;;;;;;;;;5093162;28;20055;-75
2023/11/01 06:17:24;;;;;;;6.35;2.85;;;;;;;;;;5092347;28;20047;-75
2023/11/01 06:19:50;;;;;;;8.95;3.30;;;;;;;;;;5100608;28;20496;-75
2023/11/01 06:22:17;;;;;;;7.18;2.67;;;;;;;;;;5089213;28;20055;-75
2023/11/01 06:24:44;;;;;;;10.23;3.40;;;;;;;;;;5088941;28;20052;-75
2023/11/01 06:27:12;;;;;;;9.35;2.90;;;;;;;;;;5078343;28;20522;-75
2023/11/01 06:29:42;;;;;;;11.35;3.13;;;;;;;;;;5094346;28;20667;-75
2023/11/01 06:32:10;;;;;;;7.70;3.35;;;;;;;;;;5102356;28;20485;-75
2023/11/01 06:34:36;;;;;;;10.80;2.90;;;;;;;;;;5084483;28;20060;-75
2023/11/01 06:37:03;;;;;;;10.88;3.05;;;;;;;;;;5064816;28;20485;-75
2023/11/01 06:39:30;;;;;;;13.40;2.85;;;;;;;;;;5084276;28;20056;-75
2023/11/01 06:41:56;;;;;;;11.93;3.35;;;;;;;;;;5078935;28;20054;-75
2023/11/01 06:44:23;;;;;;;14.50;3.28;;;;;;;;;;5083180;28;20044;-74
2023/11/01 06:46:50;;;;;;;16.75;2.72;;;;;;;;;;5083994;28;20728;-75
2023/11/01 06:49:16;;;;;;;11.43;3.13;;;;;;;;;;5090684;28;20058;-75
2023/11/01 06:51:43;;;;;;;11.73;2.70;;;;;;;;;;5098277;28;20598;-75
2023/11/01 06:54:09;;;;;;;11.73;2.85;;;;;;;;;;5095463;28;20094;-74
2023/11/01 06:56:36;;;;;;;10.73;2.90;;;;;;;;;;5083622;28;20474;-75
2023/11/01 06:59:03;;;;;;;11.40;2.60;;;;;;;;;;5093676;28;20048;-75
2023/11/01 07:01:30;;;;;;;13.07;3.00;;;;;;;;;;5096241;28;20044;-75
2023/11/01 07:03:56;;;;;;;10.15;2.47;;;;;;;;;;5094528;28;20083;-75
2023/11/01 07:06:22;;;;;;;7.38;2.55;;;;;;;;;;5087041;28;20047;-75
2023/11/01 07:08:49;;;;;;;8.23;3.03;;;;;;;;;;5089145;28;20060;-75
2023/11/01 07:11:18;;;;;;;19.50;3.47;;;;;;;;;;5090142;28;20120;-75
2023/11/01 07:13:45;;;;;;;18.23;3.53;;;;;;;;;;5105992;28;20055;-75
2023/11/01 07:16:11;;;;;;;18.92;3.65;;;;;;;;;;5082866;28;20060;-76
2023/11/01 07:18:40;;;;;;;12.63;2.70;;;;;;;;;;5094997;28;20055;-75
2023/11/01 07:21:10;;;;;;;15.90;3.50;;;;;;;;;;5083632;28;20052;-76
2023/11/01 07:23:36;;;;;;;14.57;2.97;;;;;;;;;;5097124;28;20125;-76
2023/11/01 07:26:03;;;;;;;12.23;2.70;;;;;;;;;;5080622;28;20048;-75
2023/11/01 07:28:30;;;;;;;12.50;2.75;;;;;;;;;;5085837;28;20048;-75
2023/11/01 07:30:57;;;;;;;9.77;2.53;;;;;;;;;;5085939;28;20071;-75
2023/11/01 07:33:23;;;;;;;10.45;2.42;;;;;;;;;;5090096;28;20071;-73
2023/11/01 07:35:49;;;;;;;11.57;2.17;;;;;;;;;;5084497;28;20559;-74
2023/11/01 07:38:16;;;;;;;10.95;2.83;;;;;;;;;;5074835;28;20051;-74
2023/11/01 07:40:42;;;;;;;8.82;2.70;;;;;;;;;;5096475;28;20060;-73
2023/11/01 07:43:09;;;;;;;14.18;2.80;;;;;;;;;;5095651;28;20040;-73
2023/11/01 07:45:35;;;;;;;13.15;2.80;;;;;;;;;;5092413;28;20056;-73
2023/11/01 07:48:01;;;;;;;17.83;3.10;;;;;;;;;;5087808;28;20044;-73
2023/11/01 07:50:29;;;;;;;10.85;2.75;;;;;;;;;;5098497;28;20480;-73
2023/11/01 07:52:55;;;;;;;10.68;2.50;;;;;;;;;;5092904;28;20128;-73
2023/11/01 07:55:22;;;;;;;11.75;2.58;;;;;;;;;;5079854;28;20043;-73
2023/11/01 07:57:48;;;;;;;13.50;2.40;;;;;;;;;;5079251;28;20143;-74
2023/11/01 08:00:15;;;;;;;8.73;1.95;;;;;;;;;;5085777;28;20051;-74
2023/11/01 08:02:41;;;;;;;7.18;2.28;;;;;;;;;;5103945;28;20047;-76
2023/11/01 08:05:08;;;;;;;10.10;2.55;;;;;;;;;;5089883;28;20039;-75
2023/11/01 08:07:34;;;;;;;10.70;2.60;;;;;;;;;;5094600;28;20064;-75
2023/11/01 08:10:01;;;;;;;14.52;2.47;;;;;;;;;;5091144;28;20089;-75
2023/11/01 08:12:27;;;;;;;11.15;2.85;;;;;;;;;;5086675;28;20101;-74
2023/11/01 08:14:54;;;;;;;9.25;2.15;;;;;;;;;;5067995;28;20126;-74
2023/11/01 08:17:20;;;;;;;9.20;2.28;;;;;;;;;;5093926;28;20043;-74
2023/11/01 08:19:47;;;;;;;13.18;2.72;;;;;;;;;;5085883;28;20052;-74
2023/11/01 08:22:13;;;;;;;11.52;2.47;;;;;;;;;;5097574;28;20075;-74
2023/11/01 08:24:40;;;;;;;11.07;2.20;;;;;;;;;;5084626;28;20044;-73
2023/11/01 08:27:06;;;;;;;13.25;2.90;;;;;;;;;;5090090;28;20093;-74
2023/11/01 08:29:35;;;;;;;9.32;2.22;;;;;;;;;;5116706;27;20047;-73
2023/11/01 08:32:02;;;;;;;13.98;2.30;;;;;;;;;;5085777;28;20040;-74
2023/11/01 08:34:28;;;;;;;7.22;2.03;;;;;;;;;;5086472;28;20424;-73
2023/11/01 08:36:55;;;;;;;15.80;3.53;;;;;;;;;;5103877;28;20063;-73
2023/11/01 08:39:21;;;;;;;13.85;2.33;;;;;;;;;;5081420;28;20052;-73
2023/11/01 08:41:47;;;;;;;8.35;2.50;;;;;;;;;;5086096;28;20048;-73
2023/11/01 08:44:14;;;;;;;12.23;3.22;;;;;;;;;;5086278;28;20040;-73
2023/11/01 08:46:40;;;;;;;15.07;2.20;;;;;;;;;;5090648;28;20135;-73
2023/11/01 08:49:06;;;;;;;13.25;2.30;;;;;;;;;;5087504;28;20048;-73
2023/11/01 08:51:33;;;;;;;10.73;2.25;;;;;;;;;;5072841;28;20068;-73
2023/11/01 08:54:00;;;;;;;8.38;1.88;;;;;;;;;;5088234;28;20079;-73
2023/11/01 08:56:27;;;;;;;11.67;2.00;;;;;;;;;;5086498;28;20055;-74
2023/11/01 08:58:54;;;;;;;10.60;2.20;;;;;;;;;;5105739;28;20047;-73
2023/11/01 09:01:20;;;;;;;14.68;2.22;;;;;;;;;;5085105;28;20075;-73
2023/11/01 09:03:47;;;;;;;8.38;1.73;;;;;;;;;;5099321;28;20056;-73
2023/11/01 09:06:13;;;;;;;7.80;2.08;;;;;;;;;;5086766;28;20113;-73
2023/11/01 09:08:40;;;;;;;13.48;2.55;;;;;;;;;;5093508;28;20051;-73
2023/11/01 09:11:06;;;;;;;8.73;1.90;;;;;;;;;;5086074;28;20052;-73
2023/11/01 09:13:33;;;;;;;15.48;2.13;;;;;;;;;;5096407;28;20390;-73
2023/11/01 09:15:59;;;;;;;6.45;1.65;;;;;;;;;;5099044;28;20105;-73
2023/11/01 09:18:26;;;;;;;10.82;2.42;;;;;;;;;;5092166;28;20051;-73
2023/11/01 09:20:52;;;;;;;13.63;2.50;;;;;;;;;;5102378;28;20440;-73
2023/11/01 09:23:19;;;;;;;9.55;2.08;;;;;;;;;;5094581;28;20055;-73
2023/11/01 09:25:45;;;;;;;7.30;1.70;;;;;;;;;;5090287;28;20083;-73
2023/11/01 09:28:13;;;;;;;9.18;1.95;;;;;;;;;;5095569;28;20059;-73
2023/11/01 09:30:39;;;;;;;10.85;2.00;;;;;;;;;;5091854;28;20055;-73
2023/11/01 09:33:07;;;;;;;13.88;2.50;;;;;;;;;;5085198;28;20051;-73
2023/11/01 09:35:33;;;;;;;12.00;1.92;;;;;;;;;;5100247;28;20425;-73
2023/11/01 09:38:00;;;;;;;13.10;3.55;;;;;;;;;;5074965;28;20059;-73
2023/11/01 09:40:27;;;;;;;13.05;2.20;;;;;;;;;;5099943;28;20101;-73
2023/11/01 09:42:53;;;;;;;14.57;2.80;;;;;;;;;;5074744;28;20047;-74
2023/11/01 09:45:20;;;;;;;7.93;1.77;;;;;;;;;;5099361;28;20553;-73
2023/11/01 09:47:48;;;;;;;12.98;2.17;;;;;;;;;;5088691;28;20047;-73
2023/11/01 09:50:17;;;;;;;;;;;;;;;;;;5102245;28;20101;-73
2023/11/01 09:52:43;;;;;;;10.98;1.95;;;;;;;;;;5085075;28;19971;-73
2023/11/01 09:55:14;;;;;;;10.82;2.38;;;;;;;;;;5081144;28;20048;-73
2023/11/01 09:57:42;;;;;;;11.18;1.90;;;;;;;;;;5076210;28;20052;-73
2023/11/01 10:00:10;;;;;;;5.40;1.63;;;;;;;;;;5079520;28;20075;-73
2023/11/01 10:02:37;;;;;;;13.40;1.92;;;;;;;;;;5094764;28;20047;-74
2023/11/01 10:05:04;;;;;;;8.45;1.73;;;;;;;;;;5080763;28;20036;-73
2023/11/01 10:07:31;;;;;;;8.18;2.30;;;;;;;;;;5094694;28;20050;-73
2023/11/01 10:09:57;;;;;;;8.93;1.52;;;;;;;;;;5090582;28;20044;-73
2023/11/01 10:12:25;;;;;;;8.55;2.58;;;;;;;;;;5102332;28;20051;-74
2023/11/01 10:14:51;;;;;;;12.50;1.93;;;;;;;;;;5083534;28;20080;-73
2023/11/01 10:17:18;;;;;;;8.95;1.88;;;;;;;;;;5077104;28;20047;-73
2023/11/01 10:19:45;;;;;;;9.52;1.58;;;;;;;;;;5080101;28;20056;-73
2023/11/01 10:22:14;;;;;;;7.40;1.60;;;;;;;;;;5085492;28;20059;-73
2023/11/01 10:24:42;;;;;;;9.70;1.83;;;;;;;;;;5102011;28;20048;-74
2023/11/01 10:27:09;;;;;;;9.80;1.88;;;;;;;;;;5099691;28;20047;-74
2023/11/01 10:29:41;;;;;;;8.35;1.30;;;;;;;;;;5093955;28;20118;-73
2023/11/01 10:32:10;;;;;;;12.77;1.90;;;;;;;;;;5082642;28;20059;-73
2023/11/01 10:34:36;;;;;;;7.32;1.55;;;;;;;;;;5108301;28;20079;-74
2023/11/01 10:37:04;;;;;;;11.68;1.70;;;;;;;;;;5089317;28;20048;-74
2023/11/01 10:39:36;;;;;;;7.85;1.75;;;;;;;;;;5101966;28;20047;-74
2023/11/01 10:42:03;;;;;;;6.70;1.75;;;;;;;;;;5070329;28;20062;-74
2023/11/01 10:44:30;;;;;;;7.47;1.80;;;;;;;;;;5098585;28;20506;-74
2023/11/01 10:46:57;;;;;;;14.07;1.80;;;;;;;;;;5093491;28;20052;-74
2023/11/01 10:49:24;;;;;;;12.07;1.80;;;;;;;;;;5087767;28;20046;-74
2023/11/01 10:51:51;;;;;;;7.00;1.65;;;;;;;;;;5092741;28;20591;-74
2023/11/01 10:54:18;;;;;;;7.30;1.60;;;;;;;;;;5096235;28;20105;-73
2023/11/01 10:56:45;;;;;;;6.88;1.73;;;;;;;;;;5099827;28;20104;-74
2023/11/01 10:59:34;;;;;;;9.50;1.92;;;;;;;;;;5099130;28;20055;-74
2023/11/01 11:02:01;;;;;;;9.57;2.17;;;;;;;;;;5091831;28;20123;-74
2023/11/01 11:04:32;;;;;;;11.63;2.10;;;;;;;;;;5088915;28;20052;-73
2023/11/01 11:07:04;;;;;;;6.15;1.70;;;;;;;;;;5086574;28;20052;-73
2023/11/01 11:09:47;;;;;;;8.70;2.08;;;;;;;;;;5072345;28;20135;-74
2023/11/01 11:12:14;;;;;;;7.35;1.70;;;;;;;;;;5095800;28;20593;-74
2023/11/01 11:14:48;;;;;;;9.73;2.22;;;;;;;;;;5082754;28;20036;-73
2023/11/01 11:17:15;;;;;;;8.35;2.08;;;;;;;;;;5095903;28;20058;-74
2023/11/01 11:20:00;;;;;;;9.15;2.10;;;;;;;;;;5084779;28;20127;-74
2023/11/01 11:22:47;;;;;;;6.40;1.70;;;;;;;;;;5093384;28;20066;-74
2023/11/01 11:25:33;;;;;;;10.73;1.67;;;;;;;;;;5085796;28;20206;-73
2023/11/01 11:28:02;;;;;;;8.88;1.60;;;;;;;;;;5101247;28;20048;-74
2023/11/01 11:30:43;;;;;;;8.20;1.80;;;;;;;;;;5105078;28;20092;-74
2023/11/01 11:33:10;;;;;;;9.60;1.50;;;;;;;;;;5088032;28;20431;-74
2023/11/01 11:35:37;;;;;;;12.18;1.95;;;;;;;;;;5106844;28;20131;-74
2023/11/01 11:38:22;;;;;;;10.07;2.30;;;;;;;;;;5081241;28;20113;-74
2023/11/01 11:41:07;;;;;;;8.43;1.85;;;;;;;;;;5101651;28;20468;-74
2023/11/01 11:43:53;;;;;;;7.88;2.38;;;;;;;;;;5099314;28;20179;-73
2023/11/01 11:46:31;;;;;;;5.00;1.58;;;;;;;;;;5079332;28;20828;-73
2023/11/01 11:49:01;;;;;;;7.22;1.80;;;;;;;;;;5084687;28;20052;-74
2023/11/01 11:51:29;;;;;;;7.22;1.67;;;;;;;;;;5086903;28;20059;-74
2023/11/01 11:53:56;;;;;;;8.32;1.63;;;;;;;;;;5070272;28;20107;-74
2023/11/01 11:56:22;;;;;;;6.15;1.40;;;;;;;;;;5100132;28;20057;-73
2023/11/01 11:58:49;;;;;;;5.03;1.30;;;;;;;;;;5088692;27;20047;-73
2023/11/01 12:01:22;;;;;;;7.00;1.48;;;;;;;;;;5111671;27;20715;-73
2023/11/01 12:03:48;;;;;;;10.50;1.75;;;;;;;;;;5077199;28;20101;-74
2023/11/01 12:06:15;;;;;;;5.90;1.58;;;;;;;;;;5104427;28;20415;-73
2023/11/01 12:08:41;;;;;;;10.68;1.70;;;;;;;;;;5094868;27;20126;-73
2023/11/01 12:11:09;;;;;;;11.07;1.52;;;;;;;;;;5107194;28;20490;-74
2023/11/01 12:13:46;;;;;;;6.85;1.40;;;;;;;;;;5090105;28;20083;-73
2023/11/01 12:16:28;;;;;;;7.00;1.50;;;;;;;;;;5102007;28;20047;-73
2023/11/01 12:19:14;;;;;;;8.77;1.45;;;;;;;;;;5096560;28;20051;-73
2023/11/01 12:21:41;;;;;;;4.18;1.23;;;;;;;;;;5093537;28;20109;-73
2023/11/01 12:24:09;;;;;;;7.15;1.50;;;;;;;;;;5077525;28;20062;-74
2023/11/01 12:26:57;;;;;;;6.97;1.45;;;;;;;;;;5078978;28;20096;-73
2023/11/01 12:29:33;;;;;;;5.47;1.45;;;;;;;;;;5087576;28;20079;-73
2023/11/01 12:32:01;;;;;;;3.83;1.05;;;;;;;;;;5088998;28;20044;-74
2023/11/01 12:34:27;;;;;;;6.68;1.15;;;;;;;;;;5081344;28;20641;-74
2023/11/01 12:37:00;;;;;;;8.90;1.40;;;;;;;;;;5090784;28;20504;-73
2023/11/01 12:39:26;;;;;;;6.15;1.30;;;;;;;;;;5068410;28;20167;-74
2023/11/01 12:41:52;;;;;;;4.22;1.00;;;;;;;;;;5082663;28;20102;-73
2023/11/01 12:44:20;;;;;;;9.23;1.30;;;;;;;;;;5096812;28;20123;-73
2023/11/01 12:46:47;;;;;;;7.63;1.05;;;;;;;;;;5101397;27;20131;-73
2023/11/01 12:49:13;;;;;;;6.93;1.48;;;;;;;;;;5086087;28;20122;-73
2023/11/01 12:51:39;;;;;;;7.40;1.42;;;;;;;;;;5089261;28;20076;-73
2023/11/01 12:54:07;;;;;;;6.30;1.30;;;;;;;;;;5091772;28;20035;-73
2023/11/01 12:56:33;;;;;;;4.40;1.05;;;;;;;;;;5090271;28;20606;-73
2023/11/01 12:59:00;;;;;;;6.07;1.45;;;;;;;;;;5082718;28;20097;-73
2023/11/01 13:01:27;;;;;;;6.90;1.05;;;;;;;;;;5103657;28;20047;-73
2023/11/01 13:03:54;;;;;;;4.80;1.20;;;;;;;;;;5100527;28;20054;-73
2023/11/01 13:06:20;;;;;;;16.92;6.97;;;;;;;;;;5102889;27;20048;-73
2023/11/01 13:08:46;;;;;;;7.05;1.50;;;;;;;;;;5096966;28;20059;-73
2023/11/01 13:11:13;;;;;;;5.75;1.95;;;;;;;;;;5100697;28;20044;-73
2023/11/01 13:13:39;;;;;;;6.13;1.50;;;;;;;;;;5086304;28;20047;-73
2023/11/01 13:16:06;;;;;;;6.80;1.50;;;;;;;;;;5084086;28;20048;-73
2023/11/01 13:18:33;;;;;;;9.73;1.40;;;;;;;;;;5080507;28;20048;-73
2023/11/01 13:20:59;;;;;;;8.13;1.23;;;;;;;;;;5085748;28;20047;-72
2023/11/01 13:23:26;;;;;;;6.35;1.20;;;;;;;;;;5103082;28;20681;-73
2023/11/01 13:25:52;;;;;;;5.13;1.52;;;;;;;;;;5082079;28;20067;-73
2023/11/01 13:28:19;;;;;;;7.88;1.20;;;;;;;;;;5093541;27;20083;-73
2023/11/01 13:30:46;;;;;;;7.90;1.30;;;;;;;;;;5101297;28;20633;-73
2023/11/01 13:33:12;;;;;;;7.82;1.35;;;;;;;;;;5102717;28;20051;-73
2023/11/01 13:35:38;;;;;;;8.82;1.63;;;;;;;;;;5098632;28;20093;-73
2023/11/01 13:38:05;;;;;;;4.50;1.23;;;;;;;;;;5073967;28;20076;-73
2023/11/01 13:40:31;;;;;;;5.22;1.70;;;;;;;;;;5095967;28;20052;-73
2023/11/01 13:42:58;;;;;;;8.45;1.27;;;;;;;;;;5074850;28;20096;-73
2023/11/01 13:45:25;;;;;;;3.63;1.00;;;;;;;;;;5096381;28;20048;-73
2023/11/01 13:47:52;;;;;;;7.05;1.40;;;;;;;;;;5064972;28;20051;-73
2023/11/01 13:50:18;;;;;;;5.57;1.35;;;;;;;;;;5095012;28;20044;-73
2023/11/01 13:52:45;;;;;;;7.63;1.10;;;;;;;;;;5103471;28;20044;-73
2023/11/01 13:55:12;;;;;;;8.30;1.20;;;;;;;;;;5080596;28;20043;-73
2023/11/01 13:57:38;;;;;;;4.95;1.00;;;;;;;;;;5102246;28;20850;-73
2023/11/01 14:00:06;;;;;;;6.78;1.20;;;;;;;;;;5095596;28;20043;-72
2023/11/01 14:02:33;;;;;;;5.45;1.00;;;;;;;;;;5118125;28;20048;-73
2023/11/01 14:04:59;;;;;;;4.18;1.00;;;;;;;;;;5083063;28;20043;-73
2023/11/01 14:07:25;;;;;;;5.35;1.10;;;;;;;;;;5084050;28;20097;-73
2023/11/01 14:09:52;;;;;;;4.93;1.25;;;;;;;;;;5097894;28;20189;-73
2023/11/01 14:12:18;;;;;;;4.70;1.27;;;;;;;;;;5076474;28;20152;-73
2023/11/01 14:14:45;;;;;;;3.78;0.88;;;;;;;;;;5099824;28;20048;-72
2023/11/01 14:17:11;;;;;;;5.97;1.30;;;;;;;;;;5081067;28;20848;-72
2023/11/01 14:19:38;;;;;;;6.80;1.40;;;;;;;;;;5090508;28;20083;-72
2023/11/01 14:22:04;;;;;;;5.25;1.27;;;;;;;;;;5093209;28;20300;-74
2023/11/01 14:24:30;;;;;;;5.32;1.15;;;;;;;;;;5091717;28;20050;-72
2023/11/01 14:26:57;;;;;;;2.92;1.30;;;;;;;;;;5104831;28;20048;-75
2023/11/01 14:29:23;;;;;;;4.57;1.20;;;;;;;;;;5107970;28;20046;-72
2023/11/01 14:31:51;;;;;;;6.90;1.02;;;;;;;;;;5096856;28;20790;-72
2023/11/01 14:34:17;;;;;;;6.93;1.30;;;;;;;;;;5088609;28;20043;-73
2023/11/01 14:36:44;;;;;;;6.15;1.10;;;;;;;;;;5090622;28;20133;-73
2023/11/01 14:39:12;;;;;;;3.78;1.00;;;;;;;;;;5090392;28;20137;-72